Terminal Aerodrome Forecast
Issued by NWS Duluth, MN

Home | Current Version | Previous Version | Text Only | Print | Product List | Glossary On
Versions: 1 2 3 4 5 6 7 8 9 10 11 12 13 14 15 16 17 18 19 20 21
000
FTUS43 KDLH 042212 AAA
TAFINL
TAF AMD
KINL 042212Z 0422/0518 14008KT P6SM VCSH SCT035 BKN070
     FM050200 15006KT P6SM VCTS SCT035CB OVC050
     FM050900 16007KT 3SM BR VCTS BKN035CB
     FM051600 16007KT P6SM VCSH BKN035=

USA.gov is the U.S. government's official web portal to all federal, state and local government web resources and services.